sensor_id;sensor_type;location;lat;lon;timestamp;pressure;altitude;pressure_sealevel;temperature;humidity
36248;BME280;22287;50.824;5.644;2023-02-18T00:01:37;101621.91;;;11.88;81.29
36248;BME280;22287;50.824;5.644;2023-02-18T00:04:03;101614.09;;;11.72;81.64
36248;BME280;22287;50.824;5.644;2023-02-18T00:06:33;101608.69;;;11.12;84.95
36248;BME280;22287;50.824;5.644;2023-02-18T00:09:01;101612.66;;;11.19;84.24
36248;BME280;22287;50.824;5.644;2023-02-18T00:11:31;101624.91;;;11.12;84.69
36248;BME280;22287;50.824;5.644;2023-02-18T00:14:01;101603.50;;;10.96;85.68
36248;BME280;22287;50.824;5.644;2023-02-18T00:16:29;101601.50;;;11.24;84.33
36248;BME280;22287;50.824;5.644;2023-02-18T00:19:04;101604.06;;;11.38;83.83
36248;BME280;22287;50.824;5.644;2023-02-18T00:21:33;101592.69;;;11.56;82.15
36248;BME280;22287;50.824;5.644;2023-02-18T00:24:00;101580.38;;;11.52;82.81
36248;BME280;22287;50.824;5.644;2023-02-18T00:26:27;101590.59;;;11.60;82.19
36248;BME280;22287;50.824;5.644;2023-02-18T00:28:54;101593.63;;;11.68;81.80
36248;BME280;22287;50.824;5.644;2023-02-18T00:31:27;101594.13;;;11.49;83.33
36248;BME280;22287;50.824;5.644;2023-02-18T00:33:55;101581.22;;;11.53;82.44
36248;BME280;22287;50.824;5.644;2023-02-18T00:36:24;101574.91;;;11.41;82.77
36248;BME280;22287;50.824;5.644;2023-02-18T00:38:56;101570.75;;;11.48;82.84
36248;BME280;22287;50.824;5.644;2023-02-18T00:41:25;101569.41;;;11.30;83.51
36248;BME280;22287;50.824;5.644;2023-02-18T00:43:52;101573.50;;;11.36;83.51
36248;BME280;22287;50.824;5.644;2023-02-18T00:46:20;101557.56;;;11.67;82.46
36248;BME280;22287;50.824;5.644;2023-02-18T00:48:47;101555.66;;;11.33;82.87
36248;BME280;22287;50.824;5.644;2023-02-18T00:51:14;101544.13;;;11.18;84.66
36248;BME280;22287;50.824;5.644;2023-02-18T00:53:41;101537.66;;;11.21;84.45
36248;BME280;22287;50.824;5.644;2023-02-18T00:56:08;101539.53;;;11.55;82.78
36248;BME280;22287;50.824;5.644;2023-02-18T00:58:36;101540.56;;;11.42;83.91
36248;BME280;22287;50.824;5.644;2023-02-18T01:01:05;101544.25;;;11.64;82.10
36248;BME280;22287;50.824;5.644;2023-02-18T01:03:34;101537.09;;;11.16;84.17
36248;BME280;22287;50.824;5.644;2023-02-18T01:06:01;101530.16;;;11.25;84.86
36248;BME280;22287;50.824;5.644;2023-02-18T01:08:28;101527.91;;;11.18;84.40
36248;BME280;22287;50.824;5.644;2023-02-18T01:10:57;101530.88;;;11.03;85.89
36248;BME280;22287;50.824;5.644;2023-02-18T01:13:25;101527.09;;;11.05;85.02
36248;BME280;22287;50.824;5.644;2023-02-18T01:15:51;101529.16;;;11.02;85.93
36248;BME280;22287;50.824;5.644;2023-02-18T01:18:19;101533.44;;;10.93;85.96
36248;BME280;22287;50.824;5.644;2023-02-18T01:20:47;101527.09;;;11.05;85.49
36248;BME280;22287;50.824;5.644;2023-02-18T01:23:14;101525.41;;;10.92;86.21
36248;BME280;22287;50.824;5.644;2023-02-18T01:25:42;101535.50;;;10.90;86.56
36248;BME280;22287;50.824;5.644;2023-02-18T01:28:10;101530.72;;;10.93;86.49
36248;BME280;22287;50.824;5.644;2023-02-18T01:30:37;101533.94;;;11.22;85.28
36248;BME280;22287;50.824;5.644;2023-02-18T01:33:04;101526.69;;;11.23;85.10
36248;BME280;22287;50.824;5.644;2023-02-18T01:35:31;101525.75;;;11.24;85.20
36248;BME280;22287;50.824;5.644;2023-02-18T01:37:58;101520.78;;;11.17;85.50
36248;BME280;22287;50.824;5.644;2023-02-18T01:40:27;101507.41;;;11.27;84.61
36248;BME280;22287;50.824;5.644;2023-02-18T01:42:54;101513.56;;;11.05;85.03
36248;BME280;22287;50.824;5.644;2023-02-18T01:48:07;101502.94;;;11.15;84.46
36248;BME280;22287;50.824;5.644;2023-02-18T01:50:39;101504.78;;;11.49;83.34
36248;BME280;22287;50.824;5.644;2023-02-18T01:53:07;101506.03;;;11.21;84.19
36248;BME280;22287;50.824;5.644;2023-02-18T01:55:36;101490.97;;;11.06;84.77
36248;BME280;22287;50.824;5.644;2023-02-18T01:58:04;101491.38;;;11.48;83.36
36248;BME280;22287;50.824;5.644;2023-02-18T02:00:32;101495.28;;;11.09;84.47
36248;BME280;22287;50.824;5.644;2023-02-18T02:02:59;101491.41;;;11.00;85.39
36248;BME280;22287;50.824;5.644;2023-02-18T02:05:30;101491.25;;;11.14;84.82
36248;BME280;22287;50.824;5.644;2023-02-18T02:07:58;101487.44;;;11.17;84.38
36248;BME280;22287;50.824;5.644;2023-02-18T02:16:18;101468.88;;;11.12;84.68
36248;BME280;22287;50.824;5.644;2023-02-18T02:22:08;101465.16;;;11.13;84.95
36248;BME280;22287;50.824;5.644;2023-02-18T02:25:04;101477.50;;;11.52;82.66
36248;BME280;22287;50.824;5.644;2023-02-18T02:27:39;101472.13;;;11.05;84.76
36248;BME280;22287;50.824;5.644;2023-02-18T02:33:19;101465.38;;;11.10;84.38
36248;BME280;22287;50.824;5.644;2023-02-18T02:36:18;101458.66;;;11.16;84.81
36248;BME280;22287;50.824;5.644;2023-02-18T02:44:10;101446.03;;;11.28;84.29
36248;BME280;22287;50.824;5.644;2023-02-18T02:46:45;101443.19;;;11.18;84.23
36248;BME280;22287;50.824;5.644;2023-02-18T02:51:50;101440.25;;;10.97;86.22
36248;BME280;22287;50.824;5.644;2023-02-18T02:54:23;101435.06;;;11.18;85.93
36248;BME280;22287;50.824;5.644;2023-02-18T02:57:36;101431.25;;;10.97;86.08
36248;BME280;22287;50.824;5.644;2023-02-18T03:00:05;101426.38;;;10.78;87.11
36248;BME280;22287;50.824;5.644;2023-02-18T03:02:46;101421.66;;;10.93;87.49
36248;BME280;22287;50.824;5.644;2023-02-18T03:10:42;101403.13;;;10.99;85.17
36248;BME280;22287;50.824;5.644;2023-02-18T03:13:43;101404.34;;;10.72;87.32
36248;BME280;22287;50.824;5.644;2023-02-18T03:22:20;101400.50;;;10.87;86.61
36248;BME280;22287;50.824;5.644;2023-02-18T03:24:53;101397.66;;;11.12;85.16
36248;BME280;22287;50.824;5.644;2023-02-18T03:27:37;101395.16;;;10.74;86.75
36248;BME280;22287;50.824;5.644;2023-02-18T03:32:50;101391.81;;;10.71;87.16
36248;BME280;22287;50.824;5.644;2023-02-18T03:35:19;101385.78;;;11.02;85.52
36248;BME280;22287;50.824;5.644;2023-02-18T03:38:03;101381.31;;;11.25;84.33
36248;BME280;22287;50.824;5.644;2023-02-18T03:40:32;101377.06;;;10.75;86.11
36248;BME280;22287;50.824;5.644;2023-02-18T03:43:00;101375.47;;;10.96;84.87
36248;BME280;22287;50.824;5.644;2023-02-18T03:45:27;101372.47;;;10.88;85.20
36248;BME280;22287;50.824;5.644;2023-02-18T03:47:54;101383.03;;;10.80;86.26
36248;BME280;22287;50.824;5.644;2023-02-18T03:50:22;101384.78;;;11.27;83.69
36248;BME280;22287;50.824;5.644;2023-02-18T03:52:49;101379.22;;;10.82;85.39
36248;BME280;22287;50.824;5.644;2023-02-18T03:55:16;101373.63;;;10.73;86.09
36248;BME280;22287;50.824;5.644;2023-02-18T03:57:43;101358.16;;;10.75;86.12
36248;BME280;22287;50.824;5.644;2023-02-18T04:00:11;101351.53;;;10.79;85.75
36248;BME280;22287;50.824;5.644;2023-02-18T04:02:41;101353.78;;;10.85;85.39
36248;BME280;22287;50.824;5.644;2023-02-18T04:05:08;101356.38;;;10.63;86.37
36248;BME280;22287;50.824;5.644;2023-02-18T04:07:35;101345.16;;;10.80;85.50
36248;BME280;22287;50.824;5.644;2023-02-18T04:10:04;101343.78;;;11.09;83.55
36248;BME280;22287;50.824;5.644;2023-02-18T04:12:31;101351.81;;;10.87;85.14
36248;BME280;22287;50.824;5.644;2023-02-18T04:14:59;101345.59;;;10.97;84.90
36248;BME280;22287;50.824;5.644;2023-02-18T04:17:25;101345.53;;;11.10;83.83
36248;BME280;22287;50.824;5.644;2023-02-18T04:19:53;101344.16;;;10.81;84.93
36248;BME280;22287;50.824;5.644;2023-02-18T04:22:19;101344.41;;;10.78;85.53
36248;BME280;22287;50.824;5.644;2023-02-18T04:24:46;101334.13;;;10.59;86.41
36248;BME280;22287;50.824;5.644;2023-02-18T04:27:14;101344.13;;;10.70;85.90
36248;BME280;22287;50.824;5.644;2023-02-18T04:29:42;101340.69;;;10.68;85.83
36248;BME280;22287;50.824;5.644;2023-02-18T04:32:08;101343.88;;;10.73;86.85
36248;BME280;22287;50.824;5.644;2023-02-18T04:34:35;101339.72;;;10.69;86.50
36248;BME280;22287;50.824;5.644;2023-02-18T04:37:02;101342.97;;;10.85;85.72
36248;BME280;22287;50.824;5.644;2023-02-18T04:39:29;101348.88;;;10.90;85.72
36248;BME280;22287;50.824;5.644;2023-02-18T04:41:56;101344.00;;;11.06;84.39
36248;BME280;22287;50.824;5.644;2023-02-18T04:44:23;101338.88;;;10.55;86.94
36248;BME280;22287;50.824;5.644;2023-02-18T04:46:49;101344.75;;;10.49;87.29
36248;BME280;22287;50.824;5.644;2023-02-18T04:49:16;101336.13;;;10.44;87.70
36248;BME280;22287;50.824;5.644;2023-02-18T04:51:43;101337.78;;;10.58;86.95
36248;BME280;22287;50.824;5.644;2023-02-18T04:54:10;101333.72;;;10.52;86.53
36248;BME280;22287;50.824;5.644;2023-02-18T04:56:36;101337.78;;;10.82;85.58
36248;BME280;22287;50.824;5.644;2023-02-18T04:59:03;101320.16;;;10.65;85.97
36248;BME280;22287;50.824;5.644;2023-02-18T05:01:30;101327.41;;;11.10;84.12
36248;BME280;22287;50.824;5.644;2023-02-18T05:03:57;101334.41;;;10.67;84.93
36248;BME280;22287;50.824;5.644;2023-02-18T05:06:23;101330.41;;;10.84;85.26
36248;BME280;22287;50.824;5.644;2023-02-18T05:08:50;101339.44;;;10.72;85.34
36248;BME280;22287;50.824;5.644;2023-02-18T05:11:17;101342.78;;;10.99;83.76
36248;BME280;22287;50.824;5.644;2023-02-18T05:13:44;101337.56;;;10.61;85.41
36248;BME280;22287;50.824;5.644;2023-02-18T05:16:11;101338.66;;;10.58;85.68
36248;BME280;22287;50.824;5.644;2023-02-18T05:18:38;101335.91;;;10.47;86.23
36248;BME280;22287;50.824;5.644;2023-02-18T05:21:05;101347.41;;;10.62;85.33
36248;BME280;22287;50.824;5.644;2023-02-18T05:23:32;101332.22;;;10.48;85.68
36248;BME280;22287;50.824;5.644;2023-02-18T05:25:59;101346.09;;;10.68;84.66
36248;BME280;22287;50.824;5.644;2023-02-18T05:28:27;101355.28;;;10.65;85.36
36248;BME280;22287;50.824;5.644;2023-02-18T05:30:53;101353.84;;;10.48;86.01
36248;BME280;22287;50.824;5.644;2023-02-18T05:33:20;101351.66;;;10.53;85.47
36248;BME280;22287;50.824;5.644;2023-02-18T05:35:48;101336.97;;;10.57;85.14
36248;BME280;22287;50.824;5.644;2023-02-18T05:38:15;101334.75;;;10.63;85.48
36248;BME280;22287;50.824;5.644;2023-02-18T05:40:41;101344.81;;;10.84;84.27
36248;BME280;22287;50.824;5.644;2023-02-18T05:43:09;101354.25;;;10.79;84.07
36248;BME280;22287;50.824;5.644;2023-02-18T05:45:36;101330.03;;;10.53;84.71
36248;BME280;22287;50.824;5.644;2023-02-18T05:48:03;101314.72;;;10.41;85.90
36248;BME280;22287;50.824;5.644;2023-02-18T05:50:30;101322.66;;;10.55;85.41
36248;BME280;22287;50.824;5.644;2023-02-18T05:52:58;101326.75;;;10.61;84.89
36248;BME280;22287;50.824;5.644;2023-02-18T05:55:26;101306.44;;;10.79;83.76
36248;BME280;22287;50.824;5.644;2023-02-18T05:57:52;101314.09;;;10.61;84.42
36248;BME280;22287;50.824;5.644;2023-02-18T06:00:19;101317.91;;;10.59;84.58
36248;BME280;22287;50.824;5.644;2023-02-18T06:02:46;101314.59;;;10.67;83.63
36248;BME280;22287;50.824;5.644;2023-02-18T06:05:13;101308.59;;;10.63;84.07
36248;BME280;22287;50.824;5.644;2023-02-18T06:07:40;101303.00;;;10.53;84.44
36248;BME280;22287;50.824;5.644;2023-02-18T06:10:07;101299.00;;;10.35;84.89
36248;BME280;22287;50.824;5.644;2023-02-18T06:12:34;101286.66;;;10.55;84.45
36248;BME280;22287;50.824;5.644;2023-02-18T06:15:01;101295.63;;;10.55;83.57
36248;BME280;22287;50.824;5.644;2023-02-18T06:17:28;101296.47;;;10.69;83.23
36248;BME280;22287;50.824;5.644;2023-02-18T06:19:55;101296.41;;;10.57;83.54
36248;BME280;22287;50.824;5.644;2023-02-18T06:22:22;101297.28;;;10.34;84.02
36248;BME280;22287;50.824;5.644;2023-02-18T06:24:48;101295.66;;;10.32;83.77
36248;BME280;22287;50.824;5.644;2023-02-18T06:27:15;101286.19;;;10.26;85.25
36248;BME280;22287;50.824;5.644;2023-02-18T06:29:42;101282.53;;;10.38;84.66
36248;BME280;22287;50.824;5.644;2023-02-18T06:32:09;101284.94;;;10.30;84.82
36248;BME280;22287;50.824;5.644;2023-02-18T06:34:36;101290.53;;;10.40;85.47
36248;BME280;22287;50.824;5.644;2023-02-18T06:37:02;101286.00;;;10.40;84.99
36248;BME280;22287;50.824;5.644;2023-02-18T06:39:29;101279.75;;;10.03;86.89
36248;BME280;22287;50.824;5.644;2023-02-18T06:41:56;101277.56;;;10.21;86.34
36248;BME280;22287;50.824;5.644;2023-02-18T06:44:23;101279.16;;;9.87;88.09
36248;BME280;22287;50.824;5.644;2023-02-18T06:46:49;101283.59;;;9.88;89.15
36248;BME280;22287;50.824;5.644;2023-02-18T06:49:16;101276.00;;;9.93;88.50
36248;BME280;22287;50.824;5.644;2023-02-18T06:51:43;101285.97;;;9.80;88.37
36248;BME280;22287;50.824;5.644;2023-02-18T06:54:10;101284.34;;;9.78;90.23
36248;BME280;22287;50.824;5.644;2023-02-18T06:56:37;101291.84;;;9.62;90.06
36248;BME280;22287;50.824;5.644;2023-02-18T06:59:03;101295.75;;;9.45;90.57
36248;BME280;22287;50.824;5.644;2023-02-18T07:01:30;101300.44;;;9.79;89.19
36248;BME280;22287;50.824;5.644;2023-02-18T07:03:57;101307.94;;;9.51;89.33
36248;BME280;22287;50.824;5.644;2023-02-18T07:06:23;101303.75;;;9.47;89.59
36248;BME280;22287;50.824;5.644;2023-02-18T07:08:50;101302.88;;;9.46;88.79
36248;BME280;22287;50.824;5.644;2023-02-18T07:11:17;101300.78;;;9.75;86.88
36248;BME280;22287;50.824;5.644;2023-02-18T07:13:43;101301.06;;;9.95;84.26
36248;BME280;22287;50.824;5.644;2023-02-18T07:16:10;101304.91;;;10.04;83.10
36248;BME280;22287;50.824;5.644;2023-02-18T07:18:37;101306.75;;;9.55;84.58
36248;BME280;22287;50.824;5.644;2023-02-18T07:21:04;101309.28;;;9.94;83.86
36248;BME280;22287;50.824;5.644;2023-02-18T07:23:31;101309.06;;;9.84;83.04
36248;BME280;22287;50.824;5.644;2023-02-18T07:26:10;101315.25;;;9.61;83.04
36248;BME280;22287;50.824;5.644;2023-02-18T07:28:37;101319.22;;;9.81;82.79
36248;BME280;22287;50.824;5.644;2023-02-18T07:31:05;101310.66;;;9.99;82.36
36248;BME280;22287;50.824;5.644;2023-02-18T07:33:32;101320.69;;;9.49;84.02
36248;BME280;22287;50.824;5.644;2023-02-18T07:36:00;101314.72;;;9.69;83.66
36248;BME280;22287;50.824;5.644;2023-02-18T07:38:28;101320.88;;;9.71;83.23
36248;BME280;22287;50.824;5.644;2023-02-18T07:40:56;101317.44;;;9.56;83.09
36248;BME280;22287;50.824;5.644;2023-02-18T07:43:23;101319.44;;;9.78;83.06
36248;BME280;22287;50.824;5.644;2023-02-18T07:45:49;101311.66;;;9.86;81.95
36248;BME280;22287;50.824;5.644;2023-02-18T07:48:19;101325.97;;;9.63;83.13
36248;BME280;22287;50.824;5.644;2023-02-18T07:50:46;101327.78;;;9.75;83.22
36248;BME280;22287;50.824;5.644;2023-02-18T07:53:15;101338.59;;;9.62;83.13
36248;BME280;22287;50.824;5.644;2023-02-18T07:55:42;101340.94;;;9.67;82.81
36248;BME280;22287;50.824;5.644;2023-02-18T08:00:41;101338.50;;;9.64;83.05
36248;BME280;22287;50.824;5.644;2023-02-18T08:03:08;101339.88;;;9.57;83.57
36248;BME280;22287;50.824;5.644;2023-02-18T08:05:35;101341.72;;;9.56;83.36
36248;BME280;22287;50.824;5.644;2023-02-18T08:08:02;101351.63;;;9.81;82.77
36248;BME280;22287;50.824;5.644;2023-02-18T08:10:30;101351.75;;;9.67;82.63
36248;BME280;22287;50.824;5.644;2023-02-18T08:12:57;101342.22;;;9.99;81.20
36248;BME280;22287;50.824;5.644;2023-02-18T08:15:23;101346.69;;;9.75;82.08
36248;BME280;22287;50.824;5.644;2023-02-18T08:17:51;101351.22;;;9.74;82.14
36248;BME280;22287;50.824;5.644;2023-02-18T08:20:18;101351.78;;;10.03;81.58
36248;BME280;22287;50.824;5.644;2023-02-18T08:22:44;101349.66;;;9.95;81.54
36248;BME280;22287;50.824;5.644;2023-02-18T08:25:11;101351.94;;;9.89;81.54
36248;BME280;22287;50.824;5.644;2023-02-18T08:27:54;101344.00;;;9.75;81.68
36248;BME280;22287;50.824;5.644;2023-02-18T08:30:20;101348.03;;;9.93;81.46
36248;BME280;22287;50.824;5.644;2023-02-18T08:32:47;101352.91;;;10.13;80.30
36248;BME280;22287;50.824;5.644;2023-02-18T08:35:14;101360.41;;;9.72;81.61
36248;BME280;22287;50.824;5.644;2023-02-18T08:37:41;101350.25;;;9.63;83.03
36248;BME280;22287;50.824;5.644;2023-02-18T08:40:18;101355.97;;;9.71;83.07
36248;BME280;22287;50.824;5.644;2023-02-18T08:42:45;101363.03;;;9.97;81.90
36248;BME280;22287;50.824;5.644;2023-02-18T08:45:12;101368.91;;;9.78;82.44
36248;BME280;22287;50.824;5.644;2023-02-18T08:47:38;101368.91;;;9.91;81.88
36248;BME280;22287;50.824;5.644;2023-02-18T08:50:26;101366.19;;;9.91;81.62
36248;BME280;22287;50.824;5.644;2023-02-18T08:52:54;101369.34;;;9.72;82.21
36248;BME280;22287;50.824;5.644;2023-02-18T08:55:22;101363.72;;;10.13;80.68
36248;BME280;22287;50.824;5.644;2023-02-18T08:57:49;101359.88;;;10.28;78.92
36248;BME280;22287;50.824;5.644;2023-02-18T09:00:16;101361.78;;;9.77;81.31
36248;BME280;22287;50.824;5.644;2023-02-18T09:02:43;101364.91;;;9.84;81.21
36248;BME280;22287;50.824;5.644;2023-02-18T09:05:11;101363.50;;;9.91;80.35
36248;BME280;22287;50.824;5.644;2023-02-18T09:07:38;101355.88;;;10.09;79.95
36248;BME280;22287;50.824;5.644;2023-02-18T09:10:06;101365.28;;;10.03;80.63
36248;BME280;22287;50.824;5.644;2023-02-18T09:12:34;101358.06;;;10.03;80.79
36248;BME280;22287;50.824;5.644;2023-02-18T09:15:01;101358.19;;;10.15;80.22
36248;BME280;22287;50.824;5.644;2023-02-18T09:17:28;101364.13;;;10.07;80.96
36248;BME280;22287;50.824;5.644;2023-02-18T09:19:54;101353.97;;;10.11;80.38
36248;BME280;22287;50.824;5.644;2023-02-18T09:22:22;101350.69;;;10.05;80.52
36248;BME280;22287;50.824;5.644;2023-02-18T09:24:49;101346.81;;;10.22;80.29
36248;BME280;22287;50.824;5.644;2023-02-18T09:27:15;101352.13;;;9.98;80.92
36248;BME280;22287;50.824;5.644;2023-02-18T09:29:42;101340.38;;;9.99;81.44
36248;BME280;22287;50.824;5.644;2023-02-18T09:32:10;101342.72;;;10.04;81.07
36248;BME280;22287;50.824;5.644;2023-02-18T09:34:43;101337.78;;;9.98;81.03
36248;BME280;22287;50.824;5.644;2023-02-18T09:37:10;101350.97;;;9.90;80.67
36248;BME280;22287;50.824;5.644;2023-02-18T09:39:37;101340.06;;;9.79;81.82
36248;BME280;22287;50.824;5.644;2023-02-18T09:42:06;101335.94;;;9.98;80.86
36248;BME280;22287;50.824;5.644;2023-02-18T09:44:42;101335.19;;;9.96;79.51
36248;BME280;22287;50.824;5.644;2023-02-18T09:49:54;101335.38;;;10.19;78.58
36248;BME280;22287;50.824;5.644;2023-02-18T09:52:31;101336.88;;;10.23;77.57
36248;BME280;22287;50.824;5.644;2023-02-18T09:55:18;101340.38;;;10.36;78.12
36248;BME280;22287;50.824;5.644;2023-02-18T09:57:48;101332.63;;;10.31;78.33
36248;BME280;22287;50.824;5.644;2023-02-18T10:00:29;101345.47;;;10.40;78.69
36248;BME280;22287;50.824;5.644;2023-02-18T10:03:20;101343.88;;;10.25;79.42
36248;BME280;22287;50.824;5.644;2023-02-18T10:05:57;101331.41;;;10.59;79.36
36248;BME280;22287;50.824;5.644;2023-02-18T10:08:34;101330.44;;;10.36;80.86
36248;BME280;22287;50.824;5.644;2023-02-18T10:11:02;101333.22;;;9.98;83.96
36248;BME280;22287;50.824;5.644;2023-02-18T10:13:32;101329.97;;;10.06;83.80
36248;BME280;22287;50.824;5.644;2023-02-18T10:16:00;101327.09;;;9.96;85.10
36248;BME280;22287;50.824;5.644;2023-02-18T10:18:29;101338.41;;;10.01;85.13
36248;BME280;22287;50.824;5.644;2023-02-18T10:21:02;101332.38;;;9.98;86.21
36248;BME280;22287;50.824;5.644;2023-02-18T10:23:32;101331.66;;;9.71;86.79
36248;BME280;22287;50.824;5.644;2023-02-18T10:26:03;101334.34;;;9.83;86.62
36248;BME280;22287;50.824;5.644;2023-02-18T10:28:34;101323.09;;;10.02;85.97
36248;BME280;22287;50.824;5.644;2023-02-18T10:31:07;101322.19;;;10.14;86.09
36248;BME280;22287;50.824;5.644;2023-02-18T10:33:41;101332.38;;;9.98;86.29
36248;BME280;22287;50.824;5.644;2023-02-18T10:36:25;101347.44;;;9.64;88.21
36248;BME280;22287;50.824;5.644;2023-02-18T10:52:14;101337.38;;;9.79;89.32
36248;BME280;22287;50.824;5.644;2023-02-18T10:55:08;101339.50;;;9.86;87.86
36248;BME280;22287;50.824;5.644;2023-02-18T10:57:56;101343.38;;;10.08;87.47
36248;BME280;22287;50.824;5.644;2023-02-18T11:00:24;101334.72;;;10.02;88.00
36248;BME280;22287;50.824;5.644;2023-02-18T11:06:38;101342.78;;;9.79;86.99
36248;BME280;22287;50.824;5.644;2023-02-18T11:09:24;101338.03;;;9.82;87.52
36248;BME280;22287;50.824;5.644;2023-02-18T11:12:02;101339.81;;;9.94;86.18
36248;BME280;22287;50.824;5.644;2023-02-18T11:14:38;101345.16;;;9.71;86.94
36248;BME280;22287;50.824;5.644;2023-02-18T11:17:25;101349.66;;;9.95;85.38
36248;BME280;22287;50.824;5.644;2023-02-18T11:23:19;101348.13;;;10.04;85.90
36248;BME280;22287;50.824;5.644;2023-02-18T11:25:59;101353.34;;;9.82;85.87
36248;BME280;22287;50.824;5.644;2023-02-18T11:28:31;101359.41;;;9.73;87.27
36248;BME280;22287;50.824;5.644;2023-02-18T11:31:02;101361.94;;;10.12;85.05
36248;BME280;22287;50.824;5.644;2023-02-18T11:35:58;101353.31;;;10.07;85.50
36248;BME280;22287;50.824;5.644;2023-02-18T11:38:35;101351.13;;;10.12;86.35
36248;BME280;22287;50.824;5.644;2023-02-18T11:41:07;101354.50;;;10.03;86.77
36248;BME280;22287;50.824;5.644;2023-02-18T11:43:36;101343.16;;;9.98;87.32
36248;BME280;22287;50.824;5.644;2023-02-18T11:46:15;101344.13;;;9.97;87.42
36248;BME280;22287;50.824;5.644;2023-02-18T11:48:43;101334.50;;;10.05;87.25
36248;BME280;22287;50.824;5.644;2023-02-18T11:51:23;101350.06;;;10.15;87.93
36248;BME280;22287;50.824;5.644;2023-02-18T11:53:59;101331.81;;;10.05;86.99
36248;BME280;22287;50.824;5.644;2023-02-18T11:56:33;101329.22;;;10.04;86.93
36248;BME280;22287;50.824;5.644;2023-02-18T11:59:01;101329.59;;;9.87;86.92
36248;BME280;22287;50.824;5.644;2023-02-18T12:01:45;101336.25;;;10.07;87.33
36248;BME280;22287;50.824;5.644;2023-02-18T12:04:17;101325.09;;;10.11;87.27
36248;BME280;22287;50.824;5.644;2023-02-18T12:06:51;101323.81;;;10.17;87.08
36248;BME280;22287;50.824;5.644;2023-02-18T12:09:28;101326.53;;;10.04;87.89
36248;BME280;22287;50.824;5.644;2023-02-18T12:12:00;101331.28;;;10.13;88.53
36248;BME280;22287;50.824;5.644;2023-02-18T12:14:28;101333.59;;;10.30;87.96
36248;BME280;22287;50.824;5.644;2023-02-18T12:17:13;101330.06;;;10.30;87.49
36248;BME280;22287;50.824;5.644;2023-02-18T12:22:43;101326.63;;;10.02;89.53
36248;BME280;22287;50.824;5.644;2023-02-18T12:39:10;101328.81;;;9.97;91.39
36248;BME280;22287;50.824;5.644;2023-02-18T12:41:55;101327.97;;;10.33;89.96
36248;BME280;22287;50.824;5.644;2023-02-18T12:55:26;101332.94;;;9.90;93.54
36248;BME280;22287;50.824;5.644;2023-02-18T13:09:05;101344.16;;;10.33;91.01
36248;BME280;22287;50.824;5.644;2023-02-18T13:14:24;101343.16;;;10.11;92.74
36248;BME280;22287;50.824;5.644;2023-02-18T13:16:55;101342.09;;;10.13;91.12
36248;BME280;22287;50.824;5.644;2023-02-18T13:19:32;101340.59;;;9.96;92.89
36248;BME280;22287;50.824;5.644;2023-02-18T13:22:05;101345.09;;;10.21;92.55
36248;BME280;22287;50.824;5.644;2023-02-18T13:24:35;101339.47;;;10.12;92.29
36248;BME280;22287;50.824;5.644;2023-02-18T13:30:22;101343.72;;;10.39;91.46
36248;BME280;22287;50.824;5.644;2023-02-18T13:33:10;101342.25;;;10.35;91.34
36248;BME280;22287;50.824;5.644;2023-02-18T13:41:08;101329.00;;;10.67;90.01
36248;BME280;22287;50.824;5.644;2023-02-18T13:43:36;101322.97;;;10.40;91.77
36248;BME280;22287;50.824;5.644;2023-02-18T13:48:39;101312.69;;;10.69;89.96
36248;BME280;22287;50.824;5.644;2023-02-18T13:51:07;101334.00;;;10.37;91.06
36248;BME280;22287;50.824;5.644;2023-02-18T13:53:36;101324.28;;;10.34;92.05
36248;BME280;22287;50.824;5.644;2023-02-18T13:56:16;101315.34;;;10.57;92.39
36248;BME280;22287;50.824;5.644;2023-02-18T13:58:51;101313.97;;;10.52;92.85
36248;BME280;22287;50.824;5.644;2023-02-18T14:01:47;101315.78;;;10.51;92.23
36248;BME280;22287;50.824;5.644;2023-02-18T14:09:57;101321.97;;;10.65;90.57
36248;BME280;22287;50.824;5.644;2023-02-18T14:15:01;101316.31;;;10.33;91.77
36248;BME280;22287;50.824;5.644;2023-02-18T14:17:38;101319.25;;;10.30;93.22
36248;BME280;22287;50.824;5.644;2023-02-18T14:22:44;101317.44;;;10.65;91.01
36248;BME280;22287;50.824;5.644;2023-02-18T14:27:41;101315.97;;;10.96;89.89
36248;BME280;22287;50.824;5.644;2023-02-18T14:30:19;101316.06;;;10.36;91.90
36248;BME280;22287;50.824;5.644;2023-02-18T14:32:52;101313.13;;;10.63;90.28
36248;BME280;22287;50.824;5.644;2023-02-18T14:38:29;101316.84;;;10.73;90.54
36248;BME280;22287;50.824;5.644;2023-02-18T14:44:11;101310.94;;;10.68;90.00
36248;BME280;22287;50.824;5.644;2023-02-18T14:46:57;101324.13;;;10.12;93.87
36248;BME280;22287;50.824;5.644;2023-02-18T14:49:41;101320.34;;;10.27;92.99
36248;BME280;22287;50.824;5.644;2023-02-18T14:52:11;101319.63;;;10.60;92.12
36248;BME280;22287;50.824;5.644;2023-02-18T14:54:39;101308.06;;;10.34;91.73
36248;BME280;22287;50.824;5.644;2023-02-18T14:57:13;101312.09;;;10.52;91.72
36248;BME280;22287;50.824;5.644;2023-02-18T14:59:43;101309.63;;;10.26;93.17
36248;BME280;22287;50.824;5.644;2023-02-18T15:02:33;101314.78;;;10.52;91.53
36248;BME280;22287;50.824;5.644;2023-02-18T15:05:10;101310.72;;;10.47;91.56
36248;BME280;22287;50.824;5.644;2023-02-18T15:07:38;101307.31;;;10.56;91.31
36248;BME280;22287;50.824;5.644;2023-02-18T15:10:13;101308.81;;;10.60;91.44
36248;BME280;22287;50.824;5.644;2023-02-18T15:12:41;101302.84;;;10.68;89.43
36248;BME280;22287;50.824;5.644;2023-02-18T15:15:13;101310.72;;;10.71;89.03
36248;BME280;22287;50.824;5.644;2023-02-18T15:17:45;101311.84;;;10.55;91.12
36248;BME280;22287;50.824;5.644;2023-02-18T15:20:14;101311.34;;;10.74;89.07
36248;BME280;22287;50.824;5.644;2023-02-18T15:22:41;101311.91;;;10.67;90.34
36248;BME280;22287;50.824;5.644;2023-02-18T15:25:11;101312.69;;;10.45;91.48
36248;BME280;22287;50.824;5.644;2023-02-18T15:27:41;101319.06;;;10.68;90.40